sensor_id;sensor_type;location;lat;lon;timestamp;P1;durP1;ratioP1;P2;durP2;ratioP2
52023;SDS011;38038;45.922;13.604;2022-07-23T00:01:16;12.15;;;7.78;;
52023;SDS011;38038;45.922;13.604;2022-07-23T00:03:41;13.10;;;8.23;;
52023;SDS011;38038;45.922;13.604;2022-07-23T00:06:07;11.52;;;8.60;;
52023;SDS011;38038;45.922;13.604;2022-07-23T00:08:33;12.52;;;8.00;;
52023;SDS011;38038;45.922;13.604;2022-07-23T00:10:59;13.82;;;8.93;;
52023;SDS011;38038;45.922;13.604;2022-07-23T00:13:25;11.40;;;8.60;;
52023;SDS011;38038;45.922;13.604;2022-07-23T00:15:51;12.38;;;8.68;;
52023;SDS011;38038;45.922;13.604;2022-07-23T00:18:17;12.52;;;7.53;;
52023;SDS011;38038;45.922;13.604;2022-07-23T00:20:43;10.32;;;7.75;;
52023;SDS011;38038;45.922;13.604;2022-07-23T00:23:09;19.48;;;9.57;;
52023;SDS011;38038;45.922;13.604;2022-07-23T00:25:34;11.30;;;8.60;;
52023;SDS011;38038;45.922;13.604;2022-07-23T00:28:00;14.02;;;8.57;;
52023;SDS011;38038;45.922;13.604;2022-07-23T00:30:27;13.23;;;8.75;;
52023;SDS011;38038;45.922;13.604;2022-07-23T00:32:55;12.90;;;8.75;;
52023;SDS011;38038;45.922;13.604;2022-07-23T00:35:23;10.88;;;7.80;;
52023;SDS011;38038;45.922;13.604;2022-07-23T00:37:50;12.73;;;8.27;;
52023;SDS011;38038;45.922;13.604;2022-07-23T00:40:16;12.45;;;9.05;;
52023;SDS011;38038;45.922;13.604;2022-07-23T00:42:42;15.40;;;9.63;;
52023;SDS011;38038;45.922;13.604;2022-07-23T00:45:08;13.38;;;8.48;;
52023;SDS011;38038;45.922;13.604;2022-07-23T00:47:34;15.48;;;8.85;;
52023;SDS011;38038;45.922;13.604;2022-07-23T00:50:00;15.25;;;9.30;;
52023;SDS011;38038;45.922;13.604;2022-07-23T00:52:26;13.63;;;8.27;;
52023;SDS011;38038;45.922;13.604;2022-07-23T00:54:52;12.50;;;9.05;;
52023;SDS011;38038;45.922;13.604;2022-07-23T00:57:18;10.73;;;8.07;;
52023;SDS011;38038;45.922;13.604;2022-07-23T00:59:43;16.88;;;9.32;;
52023;SDS011;38038;45.922;13.604;2022-07-23T01:02:09;9.88;;;7.70;;
52023;SDS011;38038;45.922;13.604;2022-07-23T01:04:35;14.00;;;9.38;;
52023;SDS011;38038;45.922;13.604;2022-07-23T01:07:01;10.15;;;7.80;;
52023;SDS011;38038;45.922;13.604;2022-07-23T01:09:27;10.50;;;7.63;;
52023;SDS011;38038;45.922;13.604;2022-07-23T01:11:55;13.20;;;8.38;;
52023;SDS011;38038;45.922;13.604;2022-07-23T01:14:22;10.90;;;7.18;;
52023;SDS011;38038;45.922;13.604;2022-07-23T01:16:48;10.07;;;7.05;;
52023;SDS011;38038;45.922;13.604;2022-07-23T01:19:15;11.95;;;7.72;;
52023;SDS011;38038;45.922;13.604;2022-07-23T01:21:42;11.80;;;6.45;;
52023;SDS011;38038;45.922;13.604;2022-07-23T01:24:13;8.30;;;6.38;;
52023;SDS011;38038;45.922;13.604;2022-07-23T01:26:41;8.15;;;5.57;;
52023;SDS011;38038;45.922;13.604;2022-07-23T01:29:08;9.25;;;7.20;;
52023;SDS011;38038;45.922;13.604;2022-07-23T01:31:34;10.07;;;6.65;;
52023;SDS011;38038;45.922;13.604;2022-07-23T01:34:00;7.53;;;5.18;;
52023;SDS011;38038;45.922;13.604;2022-07-23T01:36:26;10.80;;;5.75;;
52023;SDS011;38038;45.922;13.604;2022-07-23T01:38:53;10.00;;;5.28;;
52023;SDS011;38038;45.922;13.604;2022-07-23T01:41:19;7.57;;;4.70;;
52023;SDS011;38038;45.922;13.604;2022-07-23T01:43:45;8.23;;;5.18;;
52023;SDS011;38038;45.922;13.604;2022-07-23T01:46:11;9.18;;;5.55;;
52023;SDS011;38038;45.922;13.604;2022-07-23T01:48:38;5.85;;;4.47;;
52023;SDS011;38038;45.922;13.604;2022-07-23T01:51:03;6.82;;;5.10;;
52023;SDS011;38038;45.922;13.604;2022-07-23T01:53:29;8.05;;;5.82;;
52023;SDS011;38038;45.922;13.604;2022-07-23T01:55:56;6.50;;;5.00;;
52023;SDS011;38038;45.922;13.604;2022-07-23T01:58:23;7.78;;;5.55;;
52023;SDS011;38038;45.922;13.604;2022-07-23T02:00:49;10.50;;;5.65;;
52023;SDS011;38038;45.922;13.604;2022-07-23T02:03:15;7.90;;;5.80;;
52023;SDS011;38038;45.922;13.604;2022-07-23T02:05:40;7.03;;;5.38;;
52023;SDS011;38038;45.922;13.604;2022-07-23T02:08:06;9.30;;;5.65;;
52023;SDS011;38038;45.922;13.604;2022-07-23T02:10:32;6.13;;;4.32;;
52023;SDS011;38038;45.922;13.604;2022-07-23T02:12:58;7.93;;;5.00;;
52023;SDS011;38038;45.922;13.604;2022-07-23T02:15:24;7.75;;;5.65;;
52023;SDS011;38038;45.922;13.604;2022-07-23T02:17:49;8.15;;;5.57;;
52023;SDS011;38038;45.922;13.604;2022-07-23T02:20:15;6.80;;;5.38;;
52023;SDS011;38038;45.922;13.604;2022-07-23T02:22:41;7.35;;;5.18;;
52023;SDS011;38038;45.922;13.604;2022-07-23T02:25:07;9.85;;;6.03;;
52023;SDS011;38038;45.922;13.604;2022-07-23T02:27:33;11.13;;;5.90;;
52023;SDS011;38038;45.922;13.604;2022-07-23T02:29:59;9.18;;;5.65;;
52023;SDS011;38038;45.922;13.604;2022-07-23T02:32:25;15.07;;;5.50;;
52023;SDS011;38038;45.922;13.604;2022-07-23T02:34:52;6.13;;;4.20;;
52023;SDS011;38038;45.922;13.604;2022-07-23T02:37:18;9.57;;;4.55;;
52023;SDS011;38038;45.922;13.604;2022-07-23T02:39:43;6.38;;;4.93;;
52023;SDS011;38038;45.922;13.604;2022-07-23T02:42:09;7.32;;;4.63;;
52023;SDS011;38038;45.922;13.604;2022-07-23T02:44:35;7.32;;;4.40;;
52023;SDS011;38038;45.922;13.604;2022-07-23T02:47:01;8.80;;;5.50;;
52023;SDS011;38038;45.922;13.604;2022-07-23T02:49:26;7.40;;;5.30;;
52023;SDS011;38038;45.922;13.604;2022-07-23T02:51:52;6.13;;;5.05;;
52023;SDS011;38038;45.922;13.604;2022-07-23T02:54:18;8.25;;;5.30;;
52023;SDS011;38038;45.922;13.604;2022-07-23T02:56:44;6.60;;;4.82;;
52023;SDS011;38038;45.922;13.604;2022-07-23T02:59:10;9.18;;;5.72;;
52023;SDS011;38038;45.922;13.604;2022-07-23T03:01:36;7.35;;;4.70;;
52023;SDS011;38038;45.922;13.604;2022-07-23T03:04:02;6.30;;;5.28;;
52023;SDS011;38038;45.922;13.604;2022-07-23T03:06:28;8.20;;;5.68;;
52023;SDS011;38038;45.922;13.604;2022-07-23T03:08:54;7.20;;;5.43;;
52023;SDS011;38038;45.922;13.604;2022-07-23T03:11:20;8.90;;;5.45;;
52023;SDS011;38038;45.922;13.604;2022-07-23T03:13:45;10.93;;;6.05;;
52023;SDS011;38038;45.922;13.604;2022-07-23T03:16:11;8.52;;;5.07;;
52023;SDS011;38038;45.922;13.604;2022-07-23T03:18:37;7.57;;;4.90;;
52023;SDS011;38038;45.922;13.604;2022-07-23T03:21:03;6.35;;;4.75;;
52023;SDS011;38038;45.922;13.604;2022-07-23T03:23:28;6.95;;;4.40;;
52023;SDS011;38038;45.922;13.604;2022-07-23T03:25:54;9.23;;;5.68;;
52023;SDS011;38038;45.922;13.604;2022-07-23T03:28:20;7.72;;;5.65;;
52023;SDS011;38038;45.922;13.604;2022-07-23T03:30:46;9.20;;;5.68;;
52023;SDS011;38038;45.922;13.604;2022-07-23T03:33:15;6.50;;;4.85;;
52023;SDS011;38038;45.922;13.604;2022-07-23T03:35:43;8.20;;;5.75;;
52023;SDS011;38038;45.922;13.604;2022-07-23T03:38:09;7.28;;;5.00;;
52023;SDS011;38038;45.922;13.604;2022-07-23T03:40:35;9.10;;;5.85;;
52023;SDS011;38038;45.922;13.604;2022-07-23T03:43:00;10.15;;;6.22;;
52023;SDS011;38038;45.922;13.604;2022-07-23T03:45:26;9.85;;;5.70;;
52023;SDS011;38038;45.922;13.604;2022-07-23T03:47:52;8.95;;;5.40;;
52023;SDS011;38038;45.922;13.604;2022-07-23T03:50:18;8.05;;;5.45;;
52023;SDS011;38038;45.922;13.604;2022-07-23T03:52:44;6.50;;;5.45;;
52023;SDS011;38038;45.922;13.604;2022-07-23T03:55:10;10.43;;;6.18;;
52023;SDS011;38038;45.922;13.604;2022-07-23T03:57:35;9.60;;;5.65;;
52023;SDS011;38038;45.922;13.604;2022-07-23T04:00:02;11.93;;;6.28;;
52023;SDS011;38038;45.922;13.604;2022-07-23T04:02:30;7.57;;;5.28;;
52023;SDS011;38038;45.922;13.604;2022-07-23T04:04:56;7.53;;;5.72;;
52023;SDS011;38038;45.922;13.604;2022-07-23T04:07:22;11.70;;;5.53;;
52023;SDS011;38038;45.922;13.604;2022-07-23T04:09:47;7.15;;;5.32;;
52023;SDS011;38038;45.922;13.604;2022-07-23T04:12:14;9.10;;;5.82;;
52023;SDS011;38038;45.922;13.604;2022-07-23T04:14:40;9.38;;;5.55;;
52023;SDS011;38038;45.922;13.604;2022-07-23T04:17:05;9.30;;;6.15;;
52023;SDS011;38038;45.922;13.604;2022-07-23T04:19:31;7.47;;;5.53;;
52023;SDS011;38038;45.922;13.604;2022-07-23T04:21:57;8.48;;;5.63;;
52023;SDS011;38038;45.922;13.604;2022-07-23T04:24:23;7.43;;;5.05;;
52023;SDS011;38038;45.922;13.604;2022-07-23T04:26:48;5.25;;;4.68;;
52023;SDS011;38038;45.922;13.604;2022-07-23T04:29:14;6.78;;;4.63;;
52023;SDS011;38038;45.922;13.604;2022-07-23T04:31:40;10.45;;;5.32;;
52023;SDS011;38038;45.922;13.604;2022-07-23T04:34:06;5.78;;;4.30;;
52023;SDS011;38038;45.922;13.604;2022-07-23T04:36:31;6.28;;;4.97;;
52023;SDS011;38038;45.922;13.604;2022-07-23T04:38:57;6.78;;;5.47;;
52023;SDS011;38038;45.922;13.604;2022-07-23T04:41:23;7.07;;;4.95;;
52023;SDS011;38038;45.922;13.604;2022-07-23T04:43:48;6.95;;;5.32;;
52023;SDS011;38038;45.922;13.604;2022-07-23T04:46:14;8.52;;;6.78;;
52023;SDS011;38038;45.922;13.604;2022-07-23T04:48:40;7.43;;;4.80;;
52023;SDS011;38038;45.922;13.604;2022-07-23T04:51:07;9.18;;;4.97;;
52023;SDS011;38038;45.922;13.604;2022-07-23T04:53:33;8.60;;;5.00;;
52023;SDS011;38038;45.922;13.604;2022-07-23T04:55:58;7.45;;;4.88;;
52023;SDS011;38038;45.922;13.604;2022-07-23T04:58:24;6.50;;;4.28;;
52023;SDS011;38038;45.922;13.604;2022-07-23T05:00:50;6.38;;;4.25;;
52023;SDS011;38038;45.922;13.604;2022-07-23T05:03:16;8.40;;;3.88;;
52023;SDS011;38038;45.922;13.604;2022-07-23T05:05:42;9.07;;;6.10;;
52023;SDS011;38038;45.922;13.604;2022-07-23T05:08:08;7.53;;;4.63;;
52023;SDS011;38038;45.922;13.604;2022-07-23T05:10:34;5.95;;;3.75;;
52023;SDS011;38038;45.922;13.604;2022-07-23T05:12:59;5.53;;;4.10;;
52023;SDS011;38038;45.922;13.604;2022-07-23T05:15:25;6.93;;;4.97;;
52023;SDS011;38038;45.922;13.604;2022-07-23T05:17:51;7.10;;;5.10;;
52023;SDS011;38038;45.922;13.604;2022-07-23T05:20:16;7.72;;;4.53;;
52023;SDS011;38038;45.922;13.604;2022-07-23T05:22:42;7.00;;;4.70;;
52023;SDS011;38038;45.922;13.604;2022-07-23T05:25:08;5.97;;;4.43;;
52023;SDS011;38038;45.922;13.604;2022-07-23T05:27:34;8.80;;;5.25;;
52023;SDS011;38038;45.922;13.604;2022-07-23T05:30:00;6.05;;;3.90;;
52023;SDS011;38038;45.922;13.604;2022-07-23T05:32:26;8.18;;;5.03;;
52023;SDS011;38038;45.922;13.604;2022-07-23T05:34:51;4.25;;;3.42;;
52023;SDS011;38038;45.922;13.604;2022-07-23T05:37:17;6.18;;;4.53;;
52023;SDS011;38038;45.922;13.604;2022-07-23T05:39:43;8.38;;;3.80;;
52023;SDS011;38038;45.922;13.604;2022-07-23T05:42:08;7.13;;;3.72;;
52023;SDS011;38038;45.922;13.604;2022-07-23T05:44:34;4.88;;;3.58;;
52023;SDS011;38038;45.922;13.604;2022-07-23T05:47:00;5.20;;;3.70;;
52023;SDS011;38038;45.922;13.604;2022-07-23T05:49:26;11.00;;;4.35;;
52023;SDS011;38038;45.922;13.604;2022-07-23T05:51:52;5.32;;;3.45;;
52023;SDS011;38038;45.922;13.604;2022-07-23T05:54:18;5.45;;;3.78;;
52023;SDS011;38038;45.922;13.604;2022-07-23T05:56:43;5.00;;;3.50;;
52023;SDS011;38038;45.922;13.604;2022-07-23T05:59:09;5.95;;;3.13;;
52023;SDS011;38038;45.922;13.604;2022-07-23T06:01:37;2.92;;;1.92;;
52023;SDS011;38038;45.922;13.604;2022-07-23T06:04:02;8.95;;;3.15;;
52023;SDS011;38038;45.922;13.604;2022-07-23T06:06:28;3.67;;;2.67;;
52023;SDS011;38038;45.922;13.604;2022-07-23T06:08:54;4.28;;;3.15;;
52023;SDS011;38038;45.922;13.604;2022-07-23T06:11:19;3.28;;;2.97;;
52023;SDS011;38038;45.922;13.604;2022-07-23T06:13:45;3.95;;;2.03;;
52023;SDS011;38038;45.922;13.604;2022-07-23T06:16:11;4.50;;;2.83;;
52023;SDS011;38038;45.922;13.604;2022-07-23T06:18:36;3.25;;;2.85;;
52023;SDS011;38038;45.922;13.604;2022-07-23T06:21:02;13.13;;;3.33;;
52023;SDS011;38038;45.922;13.604;2022-07-23T06:23:28;3.90;;;3.00;;
52023;SDS011;38038;45.922;13.604;2022-07-23T06:25:53;3.17;;;2.65;;
52023;SDS011;38038;45.922;13.604;2022-07-23T06:28:19;3.42;;;2.28;;
52023;SDS011;38038;45.922;13.604;2022-07-23T06:30:45;4.55;;;3.33;;
52023;SDS011;38038;45.922;13.604;2022-07-23T06:33:10;4.00;;;3.13;;
52023;SDS011;38038;45.922;13.604;2022-07-23T06:35:37;5.05;;;2.40;;
52023;SDS011;38038;45.922;13.604;2022-07-23T15:43:46;1.23;;;0.80;;
52023;SDS011;38038;45.922;13.604;2022-07-23T15:46:11;2.35;;;0.90;;
52023;SDS011;38038;45.922;13.604;2022-07-23T15:48:37;0.93;;;0.73;;
52023;SDS011;38038;45.922;13.604;2022-07-23T15:51:04;1.38;;;1.00;;
52023;SDS011;38038;45.922;13.604;2022-07-23T15:53:31;0.98;;;0.80;;
52023;SDS011;38038;45.922;13.604;2022-07-23T15:55:57;1.15;;;1.00;;
52023;SDS011;38038;45.922;13.604;2022-07-23T15:58:23;1.05;;;0.85;;
52023;SDS011;38038;45.922;13.604;2022-07-23T16:00:49;1.20;;;0.70;;
52023;SDS011;38038;45.922;13.604;2022-07-23T16:03:14;1.95;;;1.27;;
52023;SDS011;38038;45.922;13.604;2022-07-23T16:05:40;1.42;;;0.85;;
52023;SDS011;38038;45.922;13.604;2022-07-23T16:08:06;1.20;;;0.80;;
52023;SDS011;38038;45.922;13.604;2022-07-23T16:10:32;1.15;;;0.50;;
52023;SDS011;38038;45.922;13.604;2022-07-23T16:12:58;1.85;;;0.98;;
52023;SDS011;38038;45.922;13.604;2022-07-23T16:15:24;1.48;;;1.00;;
52023;SDS011;38038;45.922;13.604;2022-07-23T16:17:50;1.15;;;0.88;;
52023;SDS011;38038;45.922;13.604;2022-07-23T16:20:16;2.65;;;1.20;;
52023;SDS011;38038;45.922;13.604;2022-07-23T16:22:41;4.05;;;1.17;;
52023;SDS011;38038;45.922;13.604;2022-07-23T16:25:07;0.75;;;0.70;;
52023;SDS011;38038;45.922;13.604;2022-07-23T16:27:34;1.38;;;0.90;;
52023;SDS011;38038;45.922;13.604;2022-07-23T16:30:01;1.20;;;0.85;;
52023;SDS011;38038;45.922;13.604;2022-07-23T16:32:27;1.77;;;1.08;;
52023;SDS011;38038;45.922;13.604;2022-07-23T16:34:54;1.75;;;1.30;;
52023;SDS011;38038;45.922;13.604;2022-07-23T16:37:20;0.90;;;0.73;;
52023;SDS011;38038;45.922;13.604;2022-07-23T16:39:46;1.58;;;1.20;;
52023;SDS011;38038;45.922;13.604;2022-07-23T16:42:11;0.80;;;0.80;;
52023;SDS011;38038;45.922;13.604;2022-07-23T16:44:38;3.40;;;1.30;;
52023;SDS011;38038;45.922;13.604;2022-07-23T16:47:04;1.48;;;0.90;;
52023;SDS011;38038;45.922;13.604;2022-07-23T16:49:31;2.05;;;0.95;;
52023;SDS011;38038;45.922;13.604;2022-07-23T16:51:59;1.58;;;1.20;;
52023;SDS011;38038;45.922;13.604;2022-07-23T16:54:25;2.40;;;1.25;;
52023;SDS011;38038;45.922;13.604;2022-07-23T16:56:51;0.65;;;0.65;;
52023;SDS011;38038;45.922;13.604;2022-07-23T16:59:18;1.95;;;1.55;;
52023;SDS011;38038;45.922;13.604;2022-07-23T17:01:44;2.00;;;1.40;;
52023;SDS011;38038;45.922;13.604;2022-07-23T17:04:09;2.97;;;1.50;;
52023;SDS011;38038;45.922;13.604;2022-07-23T17:06:35;3.33;;;1.88;;
52023;SDS011;38038;45.922;13.604;2022-07-23T17:09:02;3.42;;;2.03;;
52023;SDS011;38038;45.922;13.604;2022-07-23T17:11:28;2.38;;;1.42;;
52023;SDS011;38038;45.922;13.604;2022-07-23T17:13:54;2.22;;;1.38;;
52023;SDS011;38038;45.922;13.604;2022-07-23T17:16:20;2.67;;;1.95;;
52023;SDS011;38038;45.922;13.604;2022-07-23T17:18:45;2.30;;;1.20;;
52023;SDS011;38038;45.922;13.604;2022-07-23T17:21:11;2.45;;;1.92;;
52023;SDS011;38038;45.922;13.604;2022-07-23T17:23:37;3.17;;;1.85;;
52023;SDS011;38038;45.922;13.604;2022-07-23T17:26:03;1.17;;;0.90;;
52023;SDS011;38038;45.922;13.604;2022-07-23T17:28:29;3.00;;;1.25;;
52023;SDS011;38038;45.922;13.604;2022-07-23T17:30:55;1.27;;;1.17;;
52023;SDS011;38038;45.922;13.604;2022-07-23T17:33:20;3.45;;;1.73;;
52023;SDS011;38038;45.922;13.604;2022-07-23T17:35:46;1.92;;;1.52;;
52023;SDS011;38038;45.922;13.604;2022-07-23T17:38:17;2.90;;;1.83;;
52023;SDS011;38038;45.922;13.604;2022-07-23T17:40:43;2.10;;;1.40;;
52023;SDS011;38038;45.922;13.604;2022-07-23T17:43:09;1.73;;;1.25;;
52023;SDS011;38038;45.922;13.604;2022-07-23T17:45:34;1.75;;;1.30;;
52023;SDS011;38038;45.922;13.604;2022-07-23T17:48:00;1.73;;;1.10;;
52023;SDS011;38038;45.922;13.604;2022-07-23T17:50:26;1.48;;;1.30;;
52023;SDS011;38038;45.922;13.604;2022-07-23T17:52:53;2.13;;;1.05;;
52023;SDS011;38038;45.922;13.604;2022-07-23T17:55:21;1.58;;;1.00;;
52023;SDS011;38038;45.922;13.604;2022-07-23T17:57:48;1.73;;;1.08;;
52023;SDS011;38038;45.922;13.604;2022-07-23T18:00:23;1.77;;;1.27;;
52023;SDS011;38038;45.922;13.604;2022-07-23T18:02:50;2.40;;;1.42;;
52023;SDS011;38038;45.922;13.604;2022-07-23T18:05:16;2.58;;;1.63;;
52023;SDS011;38038;45.922;13.604;2022-07-23T18:07:42;1.60;;;1.10;;
52023;SDS011;38038;45.922;13.604;2022-07-23T18:10:09;3.17;;;1.92;;
52023;SDS011;38038;45.922;13.604;2022-07-23T18:12:35;1.83;;;1.13;;
52023;SDS011;38038;45.922;13.604;2022-07-23T18:15:01;4.18;;;1.25;;
52023;SDS011;38038;45.922;13.604;2022-07-23T18:17:28;1.45;;;1.10;;
52023;SDS011;38038;45.922;13.604;2022-07-23T18:19:53;2.58;;;1.52;;
52023;SDS011;38038;45.922;13.604;2022-07-23T18:22:19;2.55;;;0.98;;
52023;SDS011;38038;45.922;13.604;2022-07-23T18:24:45;2.15;;;1.55;;
52023;SDS011;38038;45.922;13.604;2022-07-23T18:27:10;1.95;;;1.08;;
52023;SDS011;38038;45.922;13.604;2022-07-23T18:29:36;3.20;;;1.48;;
52023;SDS011;38038;45.922;13.604;2022-07-23T18:32:02;1.27;;;1.00;;
52023;SDS011;38038;45.922;13.604;2022-07-23T18:34:29;0.93;;;0.70;;
52023;SDS011;38038;45.922;13.604;2022-07-23T18:36:55;0.85;;;0.80;;
52023;SDS011;38038;45.922;13.604;2022-07-23T18:39:21;1.70;;;0.88;;
52023;SDS011;38038;45.922;13.604;2022-07-23T18:41:47;2.15;;;0.90;;
52023;SDS011;38038;45.922;13.604;2022-07-23T18:44:13;1.75;;;1.08;;
52023;SDS011;38038;45.922;13.604;2022-07-23T18:46:40;0.75;;;0.70;;
52023;SDS011;38038;45.922;13.604;2022-07-23T18:49:06;0.95;;;0.90;;
52023;SDS011;38038;45.922;13.604;2022-07-23T18:51:32;1.58;;;0.85;;
52023;SDS011;38038;45.922;13.604;2022-07-23T18:53:58;0.82;;;0.80;;
52023;SDS011;38038;45.922;13.604;2022-07-23T18:56:23;1.63;;;0.80;;
52023;SDS011;38038;45.922;13.604;2022-07-23T18:58:49;2.42;;;1.10;;
52023;SDS011;38038;45.922;13.604;2022-07-23T19:01:15;1.92;;;1.08;;
52023;SDS011;38038;45.922;13.604;2022-07-23T19:03:41;1.17;;;0.70;;
52023;SDS011;38038;45.922;13.604;2022-07-23T19:06:07;1.23;;;0.80;;
52023;SDS011;38038;45.922;13.604;2022-07-23T19:08:33;1.90;;;1.10;;
52023;SDS011;38038;45.922;13.604;2022-07-23T19:10:58;1.15;;;0.80;;
52023;SDS011;38038;45.922;13.604;2022-07-23T19:13:24;1.10;;;0.77;;
52023;SDS011;38038;45.922;13.604;2022-07-23T19:15:50;1.30;;;0.80;;
52023;SDS011;38038;45.922;13.604;2022-07-23T19:18:17;1.02;;;0.80;;
52023;SDS011;38038;45.922;13.604;2022-07-23T19:20:43;1.60;;;0.90;;
52023;SDS011;38038;45.922;13.604;2022-07-23T19:23:09;1.52;;;1.00;;
52023;SDS011;38038;45.922;13.604;2022-07-23T19:25:35;2.30;;;0.93;;
52023;SDS011;38038;45.922;13.604;2022-07-23T19:28:01;1.38;;;0.95;;
52023;SDS011;38038;45.922;13.604;2022-07-23T19:30:28;2.58;;;1.10;;
52023;SDS011;38038;45.922;13.604;2022-07-23T19:32:53;0.85;;;0.75;;
52023;SDS011;38038;45.922;13.604;2022-07-23T19:35:19;1.25;;;1.02;;
52023;SDS011;38038;45.922;13.604;2022-07-23T19:37:45;2.25;;;0.60;;
52023;SDS011;38038;45.922;13.604;2022-07-23T19:40:11;22.75;;;3.88;;
52023;SDS011;38038;45.922;13.604;2022-07-23T19:42:37;3.90;;;1.45;;
52023;SDS011;38038;45.922;13.604;2022-07-23T19:45:06;2.33;;;1.33;;
52023;SDS011;38038;45.922;13.604;2022-07-23T19:47:32;2.13;;;1.38;;
52023;SDS011;38038;45.922;13.604;2022-07-23T19:49:58;2.08;;;1.55;;
52023;SDS011;38038;45.922;13.604;2022-07-23T19:52:24;2.17;;;1.27;;
52023;SDS011;38038;45.922;13.604;2022-07-23T19:54:50;4.30;;;1.60;;
52023;SDS011;38038;45.922;13.604;2022-07-23T19:57:16;2.58;;;1.48;;
52023;SDS011;38038;45.922;13.604;2022-07-23T19:59:41;1.55;;;1.27;;
52023;SDS011;38038;45.922;13.604;2022-07-23T20:02:07;2.75;;;1.60;;
52023;SDS011;38038;45.922;13.604;2022-07-23T20:04:33;2.50;;;1.67;;
52023;SDS011;38038;45.922;13.604;2022-07-23T20:06:59;2.00;;;1.40;;
52023;SDS011;38038;45.922;13.604;2022-07-23T20:09:25;1.80;;;1.45;;
52023;SDS011;38038;45.922;13.604;2022-07-23T20:11:50;1.95;;;1.40;;
52023;SDS011;38038;45.922;13.604;2022-07-23T20:14:16;2.38;;;1.40;;
52023;SDS011;38038;45.922;13.604;2022-07-23T20:16:42;2.83;;;1.55;;
52023;SDS011;38038;45.922;13.604;2022-07-23T20:19:08;2.80;;;1.95;;
52023;SDS011;38038;45.922;13.604;2022-07-23T20:21:34;2.15;;;1.48;;
52023;SDS011;38038;45.922;13.604;2022-07-23T20:23:59;1.50;;;1.25;;
52023;SDS011;38038;45.922;13.604;2022-07-23T20:26:26;3.95;;;1.80;;
52023;SDS011;38038;45.922;13.604;2022-07-23T20:28:51;1.35;;;1.25;;
52023;SDS011;38038;45.922;13.604;2022-07-23T20:31:17;2.63;;;1.58;;
52023;SDS011;38038;45.922;13.604;2022-07-23T20:33:43;2.75;;;1.77;;
52023;SDS011;38038;45.922;13.604;2022-07-23T20:36:09;2.40;;;1.60;;
52023;SDS011;38038;45.922;13.604;2022-07-23T20:38:35;2.88;;;1.58;;
52023;SDS011;38038;45.922;13.604;2022-07-23T20:41:00;2.50;;;1.42;;
52023;SDS011;38038;45.922;13.604;2022-07-23T20:43:26;2.70;;;1.42;;
52023;SDS011;38038;45.922;13.604;2022-07-23T20:45:52;4.90;;;1.88;;
52023;SDS011;38038;45.922;13.604;2022-07-23T20:48:17;2.22;;;1.70;;
52023;SDS011;38038;45.922;13.604;2022-07-23T20:50:43;3.78;;;1.83;;
52023;SDS011;38038;45.922;13.604;2022-07-23T20:53:09;2.75;;;1.67;;
52023;SDS011;38038;45.922;13.604;2022-07-23T20:55:35;3.72;;;2.10;;
52023;SDS011;38038;45.922;13.604;2022-07-23T20:58:01;4.55;;;2.05;;
52023;SDS011;38038;45.922;13.604;2022-07-23T21:00:28;2.22;;;1.40;;
52023;SDS011;38038;45.922;13.604;2022-07-23T21:02:54;3.38;;;1.83;;
52023;SDS011;38038;45.922;13.604;2022-07-23T21:05:20;2.85;;;2.05;;
52023;SDS011;38038;45.922;13.604;2022-07-23T21:07:46;4.00;;;2.20;;
52023;SDS011;38038;45.922;13.604;2022-07-23T21:10:12;2.33;;;1.40;;
52023;SDS011;38038;45.922;13.604;2022-07-23T21:12:38;2.78;;;2.08;;
52023;SDS011;38038;45.922;13.604;2022-07-23T21:15:04;3.05;;;1.92;;
52023;SDS011;38038;45.922;13.604;2022-07-23T21:17:31;3.60;;;1.92;;
52023;SDS011;38038;45.922;13.604;2022-07-23T21:19:57;2.78;;;1.38;;
52023;SDS011;38038;45.922;13.604;2022-07-23T21:22:22;3.65;;;2.08;;
52023;SDS011;38038;45.922;13.604;2022-07-23T21:24:48;2.83;;;1.83;;
52023;SDS011;38038;45.922;13.604;2022-07-23T21:27:14;3.13;;;1.98;;
52023;SDS011;38038;45.922;13.604;2022-07-23T21:29:40;3.78;;;1.80;;
52023;SDS011;38038;45.922;13.604;2022-07-23T21:32:07;1.70;;;1.40;;
52023;SDS011;38038;45.922;13.604;2022-07-23T21:34:33;2.42;;;1.73;;
52023;SDS011;38038;45.922;13.604;2022-07-23T21:36:59;2.75;;;1.67;;
52023;SDS011;38038;45.922;13.604;2022-07-23T21:39:25;3.17;;;1.98;;
52023;SDS011;38038;45.922;13.604;2022-07-23T21:41:50;2.08;;;1.48;;
52023;SDS011;38038;45.922;13.604;2022-07-23T21:44:16;4.28;;;2.72;;
52023;SDS011;38038;45.922;13.604;2022-07-23T21:46:42;4.97;;;3.15;;
52023;SDS011;38038;45.922;13.604;2022-07-23T21:49:08;10.05;;;4.47;;
52023;SDS011;38038;45.922;13.604;2022-07-23T21:51:33;7.18;;;4.50;;
52023;SDS011;38038;45.922;13.604;2022-07-23T21:53:59;8.38;;;4.63;;
52023;SDS011;38038;45.922;13.604;2022-07-23T21:56:25;8.68;;;4.45;;
52023;SDS011;38038;45.922;13.604;2022-07-23T21:58:51;9.38;;;5.18;;
52023;SDS011;38038;45.922;13.604;2022-07-23T22:01:17;7.00;;;4.70;;
52023;SDS011;38038;45.922;13.604;2022-07-23T22:03:43;9.48;;;4.72;;
52023;SDS011;38038;45.922;13.604;2022-07-23T22:06:09;9.02;;;4.30;;
52023;SDS011;38038;45.922;13.604;2022-07-23T22:08:35;11.27;;;5.40;;
52023;SDS011;38038;45.922;13.604;2022-07-23T22:11:01;9.25;;;4.63;;
52023;SDS011;38038;45.922;13.604;2022-07-23T22:13:27;9.90;;;4.43;;
52023;SDS011;38038;45.922;13.604;2022-07-23T22:15:53;6.05;;;3.92;;
52023;SDS011;38038;45.922;13.604;2022-07-23T22:18:18;5.28;;;3.28;;
52023;SDS011;38038;45.922;13.604;2022-07-23T22:20:44;3.75;;;2.63;;
52023;SDS011;38038;45.922;13.604;2022-07-23T22:23:10;2.67;;;1.90;;
52023;SDS011;38038;45.922;13.604;2022-07-23T22:25:36;4.25;;;2.38;;
52023;SDS011;38038;45.922;13.604;2022-07-23T22:28:02;2.78;;;1.90;;
52023;SDS011;38038;45.922;13.604;2022-07-23T22:30:28;4.68;;;2.63;;
52023;SDS011;38038;45.922;13.604;2022-07-23T22:32:55;5.05;;;3.78;;
52023;SDS011;38038;45.922;13.604;2022-07-23T22:35:22;7.20;;;3.30;;
52023;SDS011;38038;45.922;13.604;2022-07-23T22:37:48;4.20;;;2.30;;
52023;SDS011;38038;45.922;13.604;2022-07-23T22:40:14;4.25;;;2.60;;
52023;SDS011;38038;45.922;13.604;2022-07-23T22:42:41;4.30;;;2.47;;
52023;SDS011;38038;45.922;13.604;2022-07-23T22:45:07;1.75;;;1.40;;
52023;SDS011;38038;45.922;13.604;2022-07-23T22:47:33;2.30;;;1.67;;
52023;SDS011;38038;45.922;13.604;2022-07-23T22:49:59;3.33;;;2.05;;
52023;SDS011;38038;45.922;13.604;2022-07-23T22:52:25;2.03;;;1.60;;
52023;SDS011;38038;45.922;13.604;2022-07-23T22:54:51;2.53;;;1.70;;
52023;SDS011;38038;45.922;13.604;2022-07-23T22:57:17;1.95;;;1.42;;
52023;SDS011;38038;45.922;13.604;2022-07-23T22:59:42;2.97;;;1.70;;
52023;SDS011;38038;45.922;13.604;2022-07-23T23:02:08;2.72;;;1.70;;
52023;SDS011;38038;45.922;13.604;2022-07-23T23:04:34;3.30;;;1.75;;
52023;SDS011;38038;45.922;13.604;2022-07-23T23:07:00;2.17;;;1.42;;
52023;SDS011;38038;45.922;13.604;2022-07-23T23:09:26;3.22;;;1.67;;
52023;SDS011;38038;45.922;13.604;2022-07-23T23:11:52;2.60;;;1.65;;
52023;SDS011;38038;45.922;13.604;2022-07-23T23:14:18;2.85;;;1.80;;
52023;SDS011;38038;45.922;13.604;2022-07-23T23:16:44;2.90;;;2.17;;
52023;SDS011;38038;45.922;13.604;2022-07-23T23:19:09;5.40;;;2.72;;
52023;SDS011;38038;45.922;13.604;2022-07-23T23:21:35;5.95;;;3.55;;
52023;SDS011;38038;45.922;13.604;2022-07-23T23:24:01;4.63;;;2.92;;
52023;SDS011;38038;45.922;13.604;2022-07-23T23:26:27;4.45;;;2.92;;
52023;SDS011;38038;45.922;13.604;2022-07-23T23:28:53;3.38;;;2.25;;
52023;SDS011;38038;45.922;13.604;2022-07-23T23:31:19;6.25;;;2.75;;